الصفحة الرئيسية
METAR-TAF:

METAR-TAF

مطار :

كانزاس سيتي, ميزوري, الولايات المتحدة

دائرة عرض: 39-17-50N, خط طول: 094-43-50W, ارتفاع: 312 متر

مراقبة الطقس الحالي

تاريخ ووقت الإصدار 13 دقيقة قبل الساعة 02:53UTC
ريح 5 عقدة من الشمال/الشمال الشرقي
درجة الحرارة 14°درجة مئوية
الرطوبة 67%
ضغط 1022 hPa
الرؤية: 16.1 كم
سماء صافية

METAR: KMCI 230253Z 03005KT 10SM CLR 14/08 A3019 RMK AO2 SLP219 T01390083 51016

زمن: 22:06 (03:06 UTC)

توقعات

تاريخ ووقت الإصدار 3ساعات و 46 دقيقة قبل الساعة 23:20UTC
التوقعات صالحة من23 الساعة 00 UTC إلى 23 الساعة 24 UTC
ريح 4 عقدة من الشمال الشرقي
الرؤية: 10 كم
سماء صافية
من 23 الساعة 1500 UTC
ريح 10 عقدة من الشرق/الشمال الشرقي
الرؤية: 10 كم
سماء صافية

TAF: KMCI 222320Z 2300/2324 04004KT P6SM SKC FM231500 07010KT P6SM SKC

أرصاد الطقس والتوقعات من أكثر من 4000 مطار (تقارير الطقس للمطار METAR والتنبؤ بالطقس بالمطارTAF).

المحطات المتاحة هي النقط الصفراء والحمراء على الخريطة.

حرك المؤشر فوق النقطة لمعرفة اسم المحطة.

ثم انقر لمعرفة أرصاد وتوقعات الطقس.

لتغيير الخارطة: اضغط على الأزرار الخضراء مع رمز الصليب الأسود للتكبير. على الزر الأخضر مع شرطة للتصغير، أو على الأسهم الخضراء للخرائط المجاورة.


METAR-TAF: